Minneapolis-St Paul International/Wold-Chamberlain Airport
KMSP : now visible

Airfield :











YOU CAN JOIN US ON...

 
LOGIN :

Register | Disclaimer

   EN    FR    IT 

 









Legend :    VFR   Marginal VFR   IFR   Intensive IFR   Very Intensive IFR
Visi :
Ceiling :
>= 8 km
>= 3000ft
5 to 8 km
1000 to 3000 ft
1500m to 5 km
500 to 1000 ft
800 to 1500m
200 to 500 ft
< 800m
< 200 ft
Symbols :   Thunderstorms  Fog  Heavy snow  Heavy precipitations  Wind > 20 kt






- Airport Elevation : 841 ft
- IATA code : MSP


KMSP - Minneapolis-St Paul International/Wold-Chamberlain

CURRENT METAR :
  • 241501Z 14008KT 3SM -DZ BR OVC006 01/01 A2995 RMK AO2 P0000 T00110006

EXPIRED METARs :
  • 241453Z 14011KT 2 1/2SM -DZ BR OVC006 01/00 A2995 RMK AO2 SFC VIS 3 SLP152 P0000 60000 T00110000 56019
  • 241404Z 14010KT 2 1/2SM -DZ BR OVC006 01/00 A2996 RMK AO2 P0000 T00060000
  • 241353Z 13010KT 3SM -DZ BR OVC005 01/00 A2996 RMK AO2 SFC VIS 4 SLP156 P0000 T00060000
  • 241341Z 13010KT 3SM -DZ BR OVC005 01/00 A2997 RMK AO2 P0000 T00060000
  • 241300Z 12010KT 2 1/2SM -DZ BR OVC006 01/00 A2998 RMK AO2 P0000 T00060000
  • 241253Z 13013KT 3SM -DZ BR OVC006 01/M01 A2998 RMK AO2 DZB49 SLP162 P0000 T00061006

TAF KMSP
Valid from the 24 at 15:00 until the 25 at 18:00 UTC


241433Z 2415/2518 14011KT 3SM -SNDZ BR OVC006
TEMPO 2415/2418 5SM BR OVC010
FM241800 14010KT 4SM -DZ BR OVC007
FM242100 13008KT 2SM BR OVC004
FM250400 29003KT 3SM BR OVC005
FM250900 32003KT 6SM BR OVC015
KZMP FIR / North America



MET'MAP, your aeronautical weather chart ! - Copyright ORBIFLY December 2007 - Disclaimer

ORBIFLY MET'MAP TEAM :

Programming & Development : Alexandra Zaïnal
Concept & original design : Baudouin d'Aumeries
Assistance for programming : Marc-Olivier Méhu
Technical & hardware support : Manuel Goepfert

Contact : metmap@orbifly.com




SOURCES & CREDITS :

   NOAA       Earth
Advisory